sensor_id;sensor_type;location;lat;lon;timestamp;temperature;humidity
12957;DHT22;6543;48.836;10.092;2023-04-15T00:01:43;4.50;99.90
12957;DHT22;6543;48.836;10.092;2023-04-15T00:04:11;4.70;99.90
12957;DHT22;6543;48.836;10.092;2023-04-15T00:06:38;4.20;99.90
12957;DHT22;6543;48.836;10.092;2023-04-15T00:09:05;4.10;99.90
12957;DHT22;6543;48.836;10.092;2023-04-15T00:11:32;4.00;99.90
12957;DHT22;6543;48.836;10.092;2023-04-15T00:13:59;4.10;99.90
12957;DHT22;6543;48.836;10.092;2023-04-15T00:16:26;3.70;99.90
12957;DHT22;6543;48.836;10.092;2023-04-15T00:18:53;4.10;99.90
12957;DHT22;6543;48.836;10.092;2023-04-15T00:21:21;4.00;99.90
12957;DHT22;6543;48.836;10.092;2023-04-15T00:23:48;4.00;99.90
12957;DHT22;6543;48.836;10.092;2023-04-15T00:26:18;4.10;99.90
12957;DHT22;6543;48.836;10.092;2023-04-15T00:28:45;4.20;99.90
12957;DHT22;6543;48.836;10.092;2023-04-15T00:31:12;4.10;99.90
12957;DHT22;6543;48.836;10.092;2023-04-15T00:33:40;4.00;99.90
12957;DHT22;6543;48.836;10.092;2023-04-15T00:36:07;4.00;99.90
12957;DHT22;6543;48.836;10.092;2023-04-15T00:38:37;3.70;99.90
12957;DHT22;6543;48.836;10.092;2023-04-15T00:41:04;3.90;99.90
12957;DHT22;6543;48.836;10.092;2023-04-15T00:43:31;5.10;99.90
12957;DHT22;6543;48.836;10.092;2023-04-15T00:45:58;4.00;99.90
12957;DHT22;6543;48.836;10.092;2023-04-15T00:48:27;4.00;99.90
12957;DHT22;6543;48.836;10.092;2023-04-15T00:50:54;4.00;99.90
12957;DHT22;6543;48.836;10.092;2023-04-15T00:53:21;3.80;99.90
12957;DHT22;6543;48.836;10.092;2023-04-15T00:55:49;3.90;99.90
12957;DHT22;6543;48.836;10.092;2023-04-15T00:58:17;3.90;99.90
12957;DHT22;6543;48.836;10.092;2023-04-15T01:00:44;5.00;99.90
12957;DHT22;6543;48.836;10.092;2023-04-15T01:03:12;3.40;99.90
12957;DHT22;6543;48.836;10.092;2023-04-15T01:05:39;3.70;99.90
12957;DHT22;6543;48.836;10.092;2023-04-15T01:08:07;3.80;99.90
12957;DHT22;6543;48.836;10.092;2023-04-15T01:10:34;3.70;99.90
12957;DHT22;6543;48.836;10.092;2023-04-15T01:13:03;3.60;99.90
12957;DHT22;6543;48.836;10.092;2023-04-15T01:15:30;3.50;99.90
12957;DHT22;6543;48.836;10.092;2023-04-15T01:17:58;3.70;99.90
12957;DHT22;6543;48.836;10.092;2023-04-15T01:20:25;3.60;99.90
12957;DHT22;6543;48.836;10.092;2023-04-15T01:22:53;3.40;99.90
12957;DHT22;6543;48.836;10.092;2023-04-15T01:25:28;3.50;99.90
12957;DHT22;6543;48.836;10.092;2023-04-15T01:27:57;4.10;99.90
12957;DHT22;6543;48.836;10.092;2023-04-15T01:30:24;3.40;99.90
12957;DHT22;6543;48.836;10.092;2023-04-15T01:32:52;3.40;99.90
12957;DHT22;6543;48.836;10.092;2023-04-15T01:35:19;3.30;99.90
12957;DHT22;6543;48.836;10.092;2023-04-15T01:37:47;3.70;99.90
12957;DHT22;6543;48.836;10.092;2023-04-15T01:40:14;3.30;99.90
12957;DHT22;6543;48.836;10.092;2023-04-15T01:42:42;3.40;99.90
12957;DHT22;6543;48.836;10.092;2023-04-15T01:45:10;3.30;99.90
12957;DHT22;6543;48.836;10.092;2023-04-15T01:47:37;3.40;99.90
12957;DHT22;6543;48.836;10.092;2023-04-15T01:50:05;3.30;99.90
12957;DHT22;6543;48.836;10.092;2023-04-15T01:52:32;3.30;99.90
12957;DHT22;6543;48.836;10.092;2023-04-15T01:54:59;3.30;99.90
12957;DHT22;6543;48.836;10.092;2023-04-15T01:57:26;3.30;99.90
12957;DHT22;6543;48.836;10.092;2023-04-15T01:59:54;3.50;99.90
12957;DHT22;6543;48.836;10.092;2023-04-15T02:02:21;3.40;99.90
12957;DHT22;6543;48.836;10.092;2023-04-15T02:04:48;3.60;99.90
12957;DHT22;6543;48.836;10.092;2023-04-15T02:07:15;3.40;99.90
12957;DHT22;6543;48.836;10.092;2023-04-15T02:09:42;4.30;99.90
12957;DHT22;6543;48.836;10.092;2023-04-15T02:12:10;3.50;99.90
12957;DHT22;6543;48.836;10.092;2023-04-15T02:14:37;3.70;99.90
12957;DHT22;6543;48.836;10.092;2023-04-15T02:17:06;3.80;99.90
12957;DHT22;6543;48.836;10.092;2023-04-15T02:19:33;3.70;99.90
12957;DHT22;6543;48.836;10.092;2023-04-15T02:22:00;3.50;99.90
12957;DHT22;6543;48.836;10.092;2023-04-15T02:24:28;3.50;99.90
12957;DHT22;6543;48.836;10.092;2023-04-15T02:26:55;3.40;99.90
12957;DHT22;6543;48.836;10.092;2023-04-15T02:29:22;3.50;99.90
12957;DHT22;6543;48.836;10.092;2023-04-15T02:31:49;5.20;99.90
12957;DHT22;6543;48.836;10.092;2023-04-15T02:34:18;3.40;99.90
12957;DHT22;6543;48.836;10.092;2023-04-15T02:36:44;3.10;99.90
12957;DHT22;6543;48.836;10.092;2023-04-15T02:39:13;3.60;99.90
12957;DHT22;6543;48.836;10.092;2023-04-15T02:41:41;3.50;99.90
12957;DHT22;6543;48.836;10.092;2023-04-15T02:44:14;3.70;99.90
12957;DHT22;6543;48.836;10.092;2023-04-15T02:46:43;3.40;99.90
12957;DHT22;6543;48.836;10.092;2023-04-15T02:49:13;3.60;99.90
12957;DHT22;6543;48.836;10.092;2023-04-15T02:51:41;3.50;99.90
12957;DHT22;6543;48.836;10.092;2023-04-15T02:54:08;3.40;99.90
12957;DHT22;6543;48.836;10.092;2023-04-15T02:56:35;3.40;99.90
12957;DHT22;6543;48.836;10.092;2023-04-15T02:59:02;3.50;99.90
12957;DHT22;6543;48.836;10.092;2023-04-15T03:01:29;3.50;99.90
12957;DHT22;6543;48.836;10.092;2023-04-15T03:03:56;3.40;99.90
12957;DHT22;6543;48.836;10.092;2023-04-15T03:06:22;3.50;99.90
12957;DHT22;6543;48.836;10.092;2023-04-15T03:08:52;3.00;99.90
12957;DHT22;6543;48.836;10.092;2023-04-15T03:11:19;3.60;99.90
12957;DHT22;6543;48.836;10.092;2023-04-15T03:13:46;3.50;99.90
12957;DHT22;6543;48.836;10.092;2023-04-15T03:16:12;3.60;99.90
12957;DHT22;6543;48.836;10.092;2023-04-15T03:18:39;3.50;99.90
12957;DHT22;6543;48.836;10.092;2023-04-15T03:21:06;3.50;99.90
12957;DHT22;6543;48.836;10.092;2023-04-15T03:23:33;3.60;99.90
12957;DHT22;6543;48.836;10.092;2023-04-15T03:26:02;3.80;99.90
12957;DHT22;6543;48.836;10.092;2023-04-15T03:28:30;3.60;99.90
12957;DHT22;6543;48.836;10.092;2023-04-15T03:30:57;3.50;99.90
12957;DHT22;6543;48.836;10.092;2023-04-15T03:33:24;3.70;99.90
12957;DHT22;6543;48.836;10.092;2023-04-15T03:35:52;3.60;99.90
12957;DHT22;6543;48.836;10.092;2023-04-15T03:38:18;3.50;99.90
12957;DHT22;6543;48.836;10.092;2023-04-15T03:40:46;4.80;99.90
12957;DHT22;6543;48.836;10.092;2023-04-15T03:43:14;3.70;99.90
12957;DHT22;6543;48.836;10.092;2023-04-15T03:45:41;3.60;99.90
12957;DHT22;6543;48.836;10.092;2023-04-15T03:48:08;3.50;99.90
12957;DHT22;6543;48.836;10.092;2023-04-15T03:50:35;3.70;99.90
12957;DHT22;6543;48.836;10.092;2023-04-15T03:53:02;3.60;99.90
12957;DHT22;6543;48.836;10.092;2023-04-15T03:55:28;3.60;99.90
12957;DHT22;6543;48.836;10.092;2023-04-15T03:57:56;3.50;99.90
12957;DHT22;6543;48.836;10.092;2023-04-15T04:00:24;3.50;99.90
12957;DHT22;6543;48.836;10.092;2023-04-15T04:02:51;4.10;99.90
12957;DHT22;6543;48.836;10.092;2023-04-15T04:05:18;3.50;99.90
12957;DHT22;6543;48.836;10.092;2023-04-15T04:07:44;3.50;99.90
12957;DHT22;6543;48.836;10.092;2023-04-15T04:10:12;3.60;99.90
12957;DHT22;6543;48.836;10.092;2023-04-15T04:12:38;3.50;99.90
12957;DHT22;6543;48.836;10.092;2023-04-15T04:15:06;3.50;99.90
12957;DHT22;6543;48.836;10.092;2023-04-15T04:17:35;3.60;99.90
12957;DHT22;6543;48.836;10.092;2023-04-15T04:20:02;3.60;99.90
12957;DHT22;6543;48.836;10.092;2023-04-15T04:22:30;3.50;99.90
12957;DHT22;6543;48.836;10.092;2023-04-15T04:24:57;3.60;99.90
12957;DHT22;6543;48.836;10.092;2023-04-15T04:27:25;3.60;99.90
12957;DHT22;6543;48.836;10.092;2023-04-15T04:29:51;3.60;99.90
12957;DHT22;6543;48.836;10.092;2023-04-15T04:32:18;3.60;99.90
12957;DHT22;6543;48.836;10.092;2023-04-15T04:34:47;3.60;99.90
12957;DHT22;6543;48.836;10.092;2023-04-15T04:37:15;4.00;99.90
12957;DHT22;6543;48.836;10.092;2023-04-15T04:39:42;3.80;99.90
12957;DHT22;6543;48.836;10.092;2023-04-15T04:42:09;4.30;99.90
12957;DHT22;6543;48.836;10.092;2023-04-15T04:44:36;3.70;99.90
12957;DHT22;6543;48.836;10.092;2023-04-15T04:47:03;3.70;99.90
12957;DHT22;6543;48.836;10.092;2023-04-15T04:49:31;4.20;99.90
12957;DHT22;6543;48.836;10.092;2023-04-15T04:51:59;3.70;99.90
12957;DHT22;6543;48.836;10.092;2023-04-15T04:54:26;3.70;99.90
12957;DHT22;6543;48.836;10.092;2023-04-15T04:56:53;3.80;99.90
12957;DHT22;6543;48.836;10.092;2023-04-15T04:59:20;3.80;99.90
12957;DHT22;6543;48.836;10.092;2023-04-15T05:01:47;4.20;99.90
12957;DHT22;6543;48.836;10.092;2023-04-15T05:04:13;4.20;99.90
12957;DHT22;6543;48.836;10.092;2023-04-15T05:06:40;4.10;99.90
12957;DHT22;6543;48.836;10.092;2023-04-15T05:09:08;4.20;99.90
12957;DHT22;6543;48.836;10.092;2023-04-15T05:11:35;4.20;99.90
12957;DHT22;6543;48.836;10.092;2023-04-15T05:14:02;4.30;99.90
12957;DHT22;6543;48.836;10.092;2023-04-15T05:16:29;4.40;99.90
12957;DHT22;6543;48.836;10.092;2023-04-15T05:18:56;4.70;99.90
12957;DHT22;6543;48.836;10.092;2023-04-15T05:21:23;4.60;99.90
12957;DHT22;6543;48.836;10.092;2023-04-15T05:23:50;4.70;99.90
12957;DHT22;6543;48.836;10.092;2023-04-15T05:26:19;5.30;99.90
12957;DHT22;6543;48.836;10.092;2023-04-15T05:28:46;4.70;99.90
12957;DHT22;6543;48.836;10.092;2023-04-15T05:31:14;4.80;99.90
12957;DHT22;6543;48.836;10.092;2023-04-15T05:33:41;4.90;99.90
12957;DHT22;6543;48.836;10.092;2023-04-15T05:36:08;4.90;99.90
12957;DHT22;6543;48.836;10.092;2023-04-15T05:38:34;5.10;99.90
12957;DHT22;6543;48.836;10.092;2023-04-15T05:41:02;5.60;99.90
12957;DHT22;6543;48.836;10.092;2023-04-15T05:43:30;5.40;99.90
12957;DHT22;6543;48.836;10.092;2023-04-15T05:45:57;5.50;99.90
12957;DHT22;6543;48.836;10.092;2023-04-15T05:48:23;5.90;99.90
12957;DHT22;6543;48.836;10.092;2023-04-15T05:50:50;5.60;99.90
12957;DHT22;6543;48.836;10.092;2023-04-15T05:53:17;6.00;99.90
12957;DHT22;6543;48.836;10.092;2023-04-15T05:55:44;5.80;99.90
12957;DHT22;6543;48.836;10.092;2023-04-15T05:58:11;5.80;99.90
12957;DHT22;6543;48.836;10.092;2023-04-15T06:00:39;5.90;99.90
12957;DHT22;6543;48.836;10.092;2023-04-15T06:03:06;6.10;99.90
12957;DHT22;6543;48.836;10.092;2023-04-15T06:05:33;6.00;99.90
12957;DHT22;6543;48.836;10.092;2023-04-15T06:08:00;6.00;99.90
12957;DHT22;6543;48.836;10.092;2023-04-15T06:10:27;6.20;99.90
12957;DHT22;6543;48.836;10.092;2023-04-15T06:12:53;6.00;99.90
12957;DHT22;6543;48.836;10.092;2023-04-15T06:15:21;6.00;99.90
12957;DHT22;6543;48.836;10.092;2023-04-15T06:17:49;6.40;99.90
12957;DHT22;6543;48.836;10.092;2023-04-15T06:20:16;6.10;99.90
12957;DHT22;6543;48.836;10.092;2023-04-15T06:22:42;6.20;99.90
12957;DHT22;6543;48.836;10.092;2023-04-15T06:25:09;6.10;99.90
12957;DHT22;6543;48.836;10.092;2023-04-15T06:27:36;6.40;99.90
12957;DHT22;6543;48.836;10.092;2023-04-15T06:30:04;6.90;99.90
12957;DHT22;6543;48.836;10.092;2023-04-15T06:32:32;6.10;99.90
12957;DHT22;6543;48.836;10.092;2023-04-15T06:35:00;6.30;99.90
12957;DHT22;6543;48.836;10.092;2023-04-15T06:37:27;6.50;99.90
12957;DHT22;6543;48.836;10.092;2023-04-15T06:39:54;6.10;99.90
12957;DHT22;6543;48.836;10.092;2023-04-15T06:42:21;6.20;99.90
12957;DHT22;6543;48.836;10.092;2023-04-15T06:44:48;6.20;99.90
12957;DHT22;6543;48.836;10.092;2023-04-15T06:47:15;6.50;99.90
12957;DHT22;6543;48.836;10.092;2023-04-15T06:49:42;6.30;99.90
12957;DHT22;6543;48.836;10.092;2023-04-15T06:52:11;7.20;99.90
12957;DHT22;6543;48.836;10.092;2023-04-15T06:54:38;7.00;99.90
12957;DHT22;6543;48.836;10.092;2023-04-15T06:57:05;6.80;99.90
12957;DHT22;6543;48.836;10.092;2023-04-15T06:59:33;7.10;99.90
12957;DHT22;6543;48.836;10.092;2023-04-15T07:02:00;7.00;99.90
12957;DHT22;6543;48.836;10.092;2023-04-15T07:04:27;7.20;99.90
12957;DHT22;6543;48.836;10.092;2023-04-15T07:06:54;7.40;99.90
12957;DHT22;6543;48.836;10.092;2023-04-15T07:09:23;8.00;99.90
12957;DHT22;6543;48.836;10.092;2023-04-15T07:11:50;7.10;99.90
12957;DHT22;6543;48.836;10.092;2023-04-15T07:14:17;7.10;99.90
12957;DHT22;6543;48.836;10.092;2023-04-15T07:16:44;7.10;99.90
12957;DHT22;6543;48.836;10.092;2023-04-15T07:19:11;7.40;99.90
12957;DHT22;6543;48.836;10.092;2023-04-15T07:21:38;8.40;99.90
12957;DHT22;6543;48.836;10.092;2023-04-15T07:24:06;7.60;99.90
12957;DHT22;6543;48.836;10.092;2023-04-15T07:26:34;7.80;99.90
12957;DHT22;6543;48.836;10.092;2023-04-15T07:29:01;7.90;99.90
12957;DHT22;6543;48.836;10.092;2023-04-15T07:31:28;7.90;99.90
12957;DHT22;6543;48.836;10.092;2023-04-15T07:33:55;7.70;99.90
12957;DHT22;6543;48.836;10.092;2023-04-15T07:36:23;7.80;99.90
12957;DHT22;6543;48.836;10.092;2023-04-15T07:38:50;8.00;99.90
12957;DHT22;6543;48.836;10.092;2023-04-15T07:41:17;8.50;99.90
12957;DHT22;6543;48.836;10.092;2023-04-15T07:43:46;8.40;99.90
12957;DHT22;6543;48.836;10.092;2023-04-15T07:46:13;8.70;99.90
12957;DHT22;6543;48.836;10.092;2023-04-15T07:48:40;8.70;99.90
12957;DHT22;6543;48.836;10.092;2023-04-15T07:51:07;8.80;99.90
12957;DHT22;6543;48.836;10.092;2023-04-15T07:53:35;8.80;99.90
12957;DHT22;6543;48.836;10.092;2023-04-15T07:56:02;8.90;99.90
12957;DHT22;6543;48.836;10.092;2023-04-15T07:58:30;8.80;99.90
12957;DHT22;6543;48.836;10.092;2023-04-15T08:00:58;8.50;99.90
12957;DHT22;6543;48.836;10.092;2023-04-15T08:03:25;9.00;99.90
12957;DHT22;6543;48.836;10.092;2023-04-15T08:05:52;9.10;99.90
12957;DHT22;6543;48.836;10.092;2023-04-15T08:08:19;9.00;99.90
12957;DHT22;6543;48.836;10.092;2023-04-15T08:10:47;9.20;99.90
12957;DHT22;6543;48.836;10.092;2023-04-15T08:13:14;8.90;99.90
12957;DHT22;6543;48.836;10.092;2023-04-15T08:15:40;9.00;99.90
12957;DHT22;6543;48.836;10.092;2023-04-15T08:18:09;9.60;99.90
12957;DHT22;6543;48.836;10.092;2023-04-15T08:20:38;9.50;99.90
12957;DHT22;6543;48.836;10.092;2023-04-15T08:23:05;9.40;99.90
12957;DHT22;6543;48.836;10.092;2023-04-15T08:25:32;10.20;99.90
12957;DHT22;6543;48.836;10.092;2023-04-15T08:28:03;9.70;99.90
12957;DHT22;6543;48.836;10.092;2023-04-15T08:30:30;10.50;99.90
12957;DHT22;6543;48.836;10.092;2023-04-15T08:32:57;9.80;99.90
12957;DHT22;6543;48.836;10.092;2023-04-15T08:35:25;9.60;99.90
12957;DHT22;6543;48.836;10.092;2023-04-15T08:37:53;9.90;99.90
12957;DHT22;6543;48.836;10.092;2023-04-15T08:40:21;9.80;99.90
12957;DHT22;6543;48.836;10.092;2023-04-15T08:42:50;9.90;99.90
12957;DHT22;6543;48.836;10.092;2023-04-15T08:45:21;9.90;99.90
12957;DHT22;6543;48.836;10.092;2023-04-15T08:47:51;10.00;99.90
12957;DHT22;6543;48.836;10.092;2023-04-15T08:50:21;9.70;99.90
12957;DHT22;6543;48.836;10.092;2023-04-15T08:52:53;9.90;99.90
12957;DHT22;6543;48.836;10.092;2023-04-15T08:55:20;10.40;99.90
12957;DHT22;6543;48.836;10.092;2023-04-15T08:57:48;10.40;99.90
12957;DHT22;6543;48.836;10.092;2023-04-15T09:00:15;10.20;99.90
12957;DHT22;6543;48.836;10.092;2023-04-15T09:02:42;9.70;99.90
12957;DHT22;6543;48.836;10.092;2023-04-15T09:05:09;10.30;99.90
12957;DHT22;6543;48.836;10.092;2023-04-15T09:07:36;10.20;99.90
12957;DHT22;6543;48.836;10.092;2023-04-15T09:10:06;10.50;99.90
12957;DHT22;6543;48.836;10.092;2023-04-15T09:12:34;10.50;99.90
12957;DHT22;6543;48.836;10.092;2023-04-15T09:15:02;10.50;99.90
12957;DHT22;6543;48.836;10.092;2023-04-15T09:17:32;11.20;99.90
12957;DHT22;6543;48.836;10.092;2023-04-15T09:20:09;10.90;99.90
12957;DHT22;6543;48.836;10.092;2023-04-15T09:22:38;10.70;99.90
12957;DHT22;6543;48.836;10.092;2023-04-15T09:25:24;10.70;99.90
12957;DHT22;6543;48.836;10.092;2023-04-15T09:27:53;11.00;99.90
12957;DHT22;6543;48.836;10.092;2023-04-15T09:30:21;10.90;99.90
12957;DHT22;6543;48.836;10.092;2023-04-15T09:32:49;10.80;99.90
12957;DHT22;6543;48.836;10.092;2023-04-15T09:35:16;11.70;99.90
12957;DHT22;6543;48.836;10.092;2023-04-15T09:37:43;11.50;99.90
12957;DHT22;6543;48.836;10.092;2023-04-15T09:40:12;11.10;99.90
12957;DHT22;6543;48.836;10.092;2023-04-15T09:42:53;11.20;99.90
12957;DHT22;6543;48.836;10.092;2023-04-15T09:45:21;11.90;99.90
12957;DHT22;6543;48.836;10.092;2023-04-15T09:47:49;11.60;99.90
12957;DHT22;6543;48.836;10.092;2023-04-15T09:50:18;12.40;99.90
12957;DHT22;6543;48.836;10.092;2023-04-15T09:52:46;11.60;99.90
12957;DHT22;6543;48.836;10.092;2023-04-15T09:55:16;11.60;99.90
12957;DHT22;6543;48.836;10.092;2023-04-15T09:57:44;11.70;99.90
12957;DHT22;6543;48.836;10.092;2023-04-15T10:00:13;11.50;99.90
12957;DHT22;6543;48.836;10.092;2023-04-15T10:02:40;11.50;99.90
12957;DHT22;6543;48.836;10.092;2023-04-15T10:05:09;11.50;99.90
12957;DHT22;6543;48.836;10.092;2023-04-15T10:07:37;11.60;99.90
12957;DHT22;6543;48.836;10.092;2023-04-15T10:10:06;11.20;99.90
12957;DHT22;6543;48.836;10.092;2023-04-15T10:12:36;11.00;99.90
12957;DHT22;6543;48.836;10.092;2023-04-15T10:15:05;11.20;99.90
12957;DHT22;6543;48.836;10.092;2023-04-15T10:17:33;11.10;99.90
12957;DHT22;6543;48.836;10.092;2023-04-15T10:20:03;11.20;99.90
12957;DHT22;6543;48.836;10.092;2023-04-15T10:22:31;11.10;99.90
12957;DHT22;6543;48.836;10.092;2023-04-15T10:24:58;11.20;99.90
12957;DHT22;6543;48.836;10.092;2023-04-15T10:27:26;11.70;99.90
12957;DHT22;6543;48.836;10.092;2023-04-15T10:29:55;10.80;99.90
12957;DHT22;6543;48.836;10.092;2023-04-15T10:32:24;10.80;99.90
12957;DHT22;6543;48.836;10.092;2023-04-15T10:34:52;11.00;99.90
12957;DHT22;6543;48.836;10.092;2023-04-15T10:37:21;11.10;99.90
12957;DHT22;6543;48.836;10.092;2023-04-15T10:39:48;11.20;99.90
12957;DHT22;6543;48.836;10.092;2023-04-15T10:42:17;11.50;99.90
12957;DHT22;6543;48.836;10.092;2023-04-15T10:44:48;11.20;99.90
12957;DHT22;6543;48.836;10.092;2023-04-15T10:47:18;11.90;99.90
12957;DHT22;6543;48.836;10.092;2023-04-15T10:49:47;11.00;99.90
12957;DHT22;6543;48.836;10.092;2023-04-15T10:52:16;11.20;99.90
12957;DHT22;6543;48.836;10.092;2023-04-15T10:54:44;11.10;99.90
12957;DHT22;6543;48.836;10.092;2023-04-15T10:57:15;11.70;99.90
12957;DHT22;6543;48.836;10.092;2023-04-15T11:00:10;11.80;99.90
12957;DHT22;6543;48.836;10.092;2023-04-15T11:02:44;11.10;99.90
12957;DHT22;6543;48.836;10.092;2023-04-15T11:05:12;11.70;99.90
12957;DHT22;6543;48.836;10.092;2023-04-15T11:07:48;11.30;99.90
12957;DHT22;6543;48.836;10.092;2023-04-15T11:13:28;11.50;99.90
12957;DHT22;6543;48.836;10.092;2023-04-15T11:16:00;11.90;99.90
12957;DHT22;6543;48.836;10.092;2023-04-15T11:18:33;11.40;99.90
12957;DHT22;6543;48.836;10.092;2023-04-15T11:21:02;11.20;99.90
12957;DHT22;6543;48.836;10.092;2023-04-15T11:23:39;11.00;99.90
12957;DHT22;6543;48.836;10.092;2023-04-15T11:26:09;11.00;99.90
12957;DHT22;6543;48.836;10.092;2023-04-15T11:28:38;11.20;99.90
12957;DHT22;6543;48.836;10.092;2023-04-15T11:31:07;11.00;99.90
12957;DHT22;6543;48.836;10.092;2023-04-15T11:33:37;11.00;99.90
12957;DHT22;6543;48.836;10.092;2023-04-15T11:36:04;11.20;99.90
12957;DHT22;6543;48.836;10.092;2023-04-15T11:38:33;10.90;99.90
12957;DHT22;6543;48.836;10.092;2023-04-15T11:41:00;10.80;99.90
12957;DHT22;6543;48.836;10.092;2023-04-15T11:43:30;10.80;99.90
12957;DHT22;6543;48.836;10.092;2023-04-15T11:46:01;11.10;99.90
12957;DHT22;6543;48.836;10.092;2023-04-15T11:48:29;11.30;99.90
12957;DHT22;6543;48.836;10.092;2023-04-15T11:50:59;11.30;99.90
12957;DHT22;6543;48.836;10.092;2023-04-15T11:53:36;11.50;99.90
12957;DHT22;6543;48.836;10.092;2023-04-15T11:56:04;11.70;99.90
12957;DHT22;6543;48.836;10.092;2023-04-15T11:58:33;11.70;99.90
12957;DHT22;6543;48.836;10.092;2023-04-15T12:01:01;12.20;99.90
12957;DHT22;6543;48.836;10.092;2023-04-15T12:03:29;12.00;99.90
12957;DHT22;6543;48.836;10.092;2023-04-15T12:06:10;12.10;99.90
12957;DHT22;6543;48.836;10.092;2023-04-15T12:08:57;12.50;99.90
12957;DHT22;6543;48.836;10.092;2023-04-15T12:11:29;12.40;99.90
12957;DHT22;6543;48.836;10.092;2023-04-15T12:13:58;12.20;99.90
12957;DHT22;6543;48.836;10.092;2023-04-15T12:16:27;11.70;99.90
12957;DHT22;6543;48.836;10.092;2023-04-15T12:18:56;11.80;99.90
12957;DHT22;6543;48.836;10.092;2023-04-15T12:21:26;11.80;99.90
12957;DHT22;6543;48.836;10.092;2023-04-15T12:23:55;11.50;99.90
12957;DHT22;6543;48.836;10.092;2023-04-15T12:26:27;12.00;99.90
12957;DHT22;6543;48.836;10.092;2023-04-15T12:28:54;11.20;99.90
12957;DHT22;6543;48.836;10.092;2023-04-15T12:31:21;11.30;99.90
12957;DHT22;6543;48.836;10.092;2023-04-15T12:33:49;11.10;99.90
12957;DHT22;6543;48.836;10.092;2023-04-15T12:36:16;11.20;99.90
12957;DHT22;6543;48.836;10.092;2023-04-15T12:38:44;11.10;99.90
12957;DHT22;6543;48.836;10.092;2023-04-15T12:41:11;11.00;99.90
12957;DHT22;6543;48.836;10.092;2023-04-15T12:43:38;11.00;99.90
12957;DHT22;6543;48.836;10.092;2023-04-15T12:46:05;10.90;99.90
12957;DHT22;6543;48.836;10.092;2023-04-15T12:48:32;10.70;99.90
12957;DHT22;6543;48.836;10.092;2023-04-15T12:50:59;10.60;99.90
12957;DHT22;6543;48.836;10.092;2023-04-15T12:53:27;10.60;99.90
12957;DHT22;6543;48.836;10.092;2023-04-15T12:55:55;10.40;99.90
12957;DHT22;6543;48.836;10.092;2023-04-15T12:58:22;10.10;99.90
12957;DHT22;6543;48.836;10.092;2023-04-15T13:00:49;10.30;99.90
12957;DHT22;6543;48.836;10.092;2023-04-15T13:03:16;10.60;99.90
12957;DHT22;6543;48.836;10.092;2023-04-15T13:05:43;10.40;99.90
12957;DHT22;6543;48.836;10.092;2023-04-15T13:08:10;10.40;99.90
12957;DHT22;6543;48.836;10.092;2023-04-15T13:10:37;10.20;99.90
12957;DHT22;6543;48.836;10.092;2023-04-15T13:13:05;10.30;99.90
12957;DHT22;6543;48.836;10.092;2023-04-15T13:15:33;10.90;99.90
12957;DHT22;6543;48.836;10.092;2023-04-15T13:18:00;10.40;99.90
12957;DHT22;6543;48.836;10.092;2023-04-15T13:20:27;10.40;99.90
12957;DHT22;6543;48.836;10.092;2023-04-15T13:22:54;10.30;99.90
12957;DHT22;6543;48.836;10.092;2023-04-15T13:25:21;10.30;99.90
12957;DHT22;6543;48.836;10.092;2023-04-15T13:27:49;10.70;99.90
12957;DHT22;6543;48.836;10.092;2023-04-15T13:30:17;10.30;99.90
12957;DHT22;6543;48.836;10.092;2023-04-15T13:32:44;10.40;99.90
12957;DHT22;6543;48.836;10.092;2023-04-15T13:35:11;10.20;99.90
12957;DHT22;6543;48.836;10.092;2023-04-15T13:37:38;10.80;99.90
12957;DHT22;6543;48.836;10.092;2023-04-15T13:40:06;11.30;99.90
12957;DHT22;6543;48.836;10.092;2023-04-15T13:42:33;10.60;99.90
12957;DHT22;6543;48.836;10.092;2023-04-15T13:44:59;10.40;99.90
12957;DHT22;6543;48.836;10.092;2023-04-15T13:47:28;10.60;99.90
12957;DHT22;6543;48.836;10.092;2023-04-15T13:49:55;10.50;99.90
12957;DHT22;6543;48.836;10.092;2023-04-15T13:52:22;10.40;99.90
12957;DHT22;6543;48.836;10.092;2023-04-15T13:54:49;10.30;99.90
12957;DHT22;6543;48.836;10.092;2023-04-15T13:57:17;10.30;99.90
12957;DHT22;6543;48.836;10.092;2023-04-15T13:59:44;10.50;99.90
12957;DHT22;6543;48.836;10.092;2023-04-15T14:02:11;10.30;99.90
12957;DHT22;6543;48.836;10.092;2023-04-15T14:04:39;10.10;99.90
12957;DHT22;6543;48.836;10.092;2023-04-15T14:07:06;10.20;99.90
12957;DHT22;6543;48.836;10.092;2023-04-15T14:09:34;10.00;99.90
12957;DHT22;6543;48.836;10.092;2023-04-15T14:12:01;10.00;99.90
12957;DHT22;6543;48.836;10.092;2023-04-15T14:14:27;10.00;99.90
12957;DHT22;6543;48.836;10.092;2023-04-15T14:16:54;10.00;99.90
12957;DHT22;6543;48.836;10.092;2023-04-15T14:19:22;9.80;99.90
12957;DHT22;6543;48.836;10.092;2023-04-15T14:21:51;9.90;99.90
12957;DHT22;6543;48.836;10.092;2023-04-15T14:24:18;9.80;99.90
12957;DHT22;6543;48.836;10.092;2023-04-15T14:26:44;9.90;99.90
12957;DHT22;6543;48.836;10.092;2023-04-15T14:29:11;9.90;99.90
12957;DHT22;6543;48.836;10.092;2023-04-15T14:31:38;9.90;99.90
12957;DHT22;6543;48.836;10.092;2023-04-15T14:34:05;10.00;99.90
12957;DHT22;6543;48.836;10.092;2023-04-15T14:36:32;10.10;99.90
12957;DHT22;6543;48.836;10.092;2023-04-15T14:39:01;9.90;99.90
12957;DHT22;6543;48.836;10.092;2023-04-15T14:41:28;10.00;99.90
12957;DHT22;6543;48.836;10.092;2023-04-15T14:43:55;9.80;99.90
12957;DHT22;6543;48.836;10.092;2023-04-15T14:46:22;9.90;99.90
12957;DHT22;6543;48.836;10.092;2023-04-15T14:48:49;9.80;99.90
12957;DHT22;6543;48.836;10.092;2023-04-15T14:51:16;9.80;99.90
12957;DHT22;6543;48.836;10.092;2023-04-15T14:53:44;9.70;99.90
12957;DHT22;6543;48.836;10.092;2023-04-15T14:56:13;9.50;99.90
12957;DHT22;6543;48.836;10.092;2023-04-15T14:58:40;9.90;99.90
12957;DHT22;6543;48.836;10.092;2023-04-15T15:01:07;9.30;99.90
12957;DHT22;6543;48.836;10.092;2023-04-15T15:03:35;9.20;99.90
12957;DHT22;6543;48.836;10.092;2023-04-15T15:06:02;9.30;99.90
12957;DHT22;6543;48.836;10.092;2023-04-15T15:08:29;9.00;99.90
12957;DHT22;6543;48.836;10.092;2023-04-15T15:10:56;9.20;99.90
12957;DHT22;6543;48.836;10.092;2023-04-15T15:13:24;8.30;99.90
12957;DHT22;6543;48.836;10.092;2023-04-15T15:15:51;9.00;99.90
12957;DHT22;6543;48.836;10.092;2023-04-15T15:18:18;8.80;99.90
12957;DHT22;6543;48.836;10.092;2023-04-15T15:20:45;8.70;99.90
12957;DHT22;6543;48.836;10.092;2023-04-15T15:23:12;8.60;99.90
12957;DHT22;6543;48.836;10.092;2023-04-15T15:25:39;8.30;99.90
12957;DHT22;6543;48.836;10.092;2023-04-15T15:28:06;8.30;99.90
12957;DHT22;6543;48.836;10.092;2023-04-15T15:30:34;8.30;99.90
12957;DHT22;6543;48.836;10.092;2023-04-15T15:33:01;8.20;99.90
12957;DHT22;6543;48.836;10.092;2023-04-15T15:35:29;8.80;99.90
12957;DHT22;6543;48.836;10.092;2023-04-15T15:37:56;8.10;99.90
12957;DHT22;6543;48.836;10.092;2023-04-15T15:40:25;8.10;99.90
12957;DHT22;6543;48.836;10.092;2023-04-15T15:42:52;7.80;99.90
12957;DHT22;6543;48.836;10.092;2023-04-15T15:45:19;7.60;99.90
12957;DHT22;6543;48.836;10.092;2023-04-15T15:47:47;7.40;99.90